Jeppesen Weather report generated on Mon Jul 23 07:26:27 UTC 2018

TAF METAR Weather Report For FQBR FQCH FQTT FQVL FQ
ICAOREPORT DATA
FQBR
TAF_FC
TAF AMD FQBR 230400Z 2306/2412 18010G20KT 9999 SCT015 BKN018
         PROB30 TEMPO 2306/2312 5000 -RADZ SCT012 BKN017
         BECMG 2312/2314 11012G22KT BKN015
         BECMG 2318/2320 17010G22KT
         TN16/2403Z TX25/2313Z=
FQBR
METAR
FQBR 230700Z /////KT 9999 FEW018 22/19 Q1028=
FQCH
TAF_FC
TAF FQCH 230400Z 2306/2406 VRB03KT 9999 SCT020
         BECMG 2312/2314 17010KT BKN017
         BECMG 2318/2320 10005KT
         TN12/2403Z TX21/2313Z=
FQCH
METAR
METAR FQCH 230700Z 18012KT 9999 BKN015 16/14 Q1032=
FQTT
TAF_FC
TAF FQTT 230400Z 2306/2406 VRB03KT 9999 SCT018
         BECMG 2312/2314 15008KT BKN015
         BECMG 2318/2320 23006KT
         TN17/2403Z TX28/2313Z=
FQTT
METAR
NONE
FQVL
TAF_FC
TAF FQVL 230400Z 2306/2406 15011G23KT 9999 BKN015
         BECMG 2312/2314 16012KT
         BECMG 2318/2320 23010KT
          TN15/2403Z TX25/2313Z=
FQVL
METAR
METAR FQVL 230700Z 15015KT 9999 BKN020 SCT080 23/19 Q1029=